Time;durP1;ratioP1;P1;durP2;ratioP2;P2;SDS_P1;SDS_P2;PMS_P1;PMS_P2;Temp;Humidity;BMP_temperature;BMP_pressure;BME280_temperature;BME280_humidity;BME280_pressure;Samples;Min_cycle;Max_cycle;Signal;HPM_P1;HPM_P2
2024/02/21 00:00:56;;;;;;;6.15;2.92;;;10.80;99.90;;;;;;10095976;28;20574;-68
2024/02/21 00:05:46;;;;;;;6.53;2.85;;;10.80;99.90;;;;;;10096352;28;20025;-68
2024/02/21 00:10:37;;;;;;;5.35;3.25;;;10.80;99.90;;;;;;10097886;28;20035;-68
2024/02/21 00:15:27;;;;;;;5.13;2.78;;;10.70;99.90;;;;;;10100201;28;20025;-65
2024/02/21 00:20:18;;;;;;;5.05;2.92;;;10.70;99.90;;;;;;10107311;28;20142;-66
2024/02/21 00:25:09;;;;;;;5.00;2.75;;;10.70;99.90;;;;;;10098866;28;20021;-66
2024/02/21 00:29:59;;;;;;;9.77;3.58;;;10.60;99.90;;;;;;10099047;28;20075;-66
2024/02/21 00:34:50;;;;;;;3.28;2.30;;;10.60;99.90;;;;;;10106683;28;20021;-65
2024/02/21 00:39:42;;;;;;;7.35;2.50;;;10.60;99.90;;;;;;10098094;28;20097;-67
2024/02/21 00:44:33;;;;;;;5.07;2.40;;;10.60;99.90;;;;;;10099275;28;20414;-65
2024/02/21 00:49:23;;;;;;;5.07;2.30;;;10.50;99.90;;;;;;10101379;28;20028;-66
2024/02/21 00:54:14;;;;;;;4.88;2.78;;;10.60;99.90;;;;;;10099145;28;20083;-66
2024/02/21 00:59:05;;;;;;;4.93;2.65;;;10.50;99.90;;;;;;10098478;28;20503;-65
2024/02/21 01:03:55;;;;;;;5.80;2.58;;;10.50;99.90;;;;;;10080027;28;20024;-65
2024/02/21 01:08:49;;;;;;;4.00;3.53;;;10.50;99.90;;;;;;10097184;28;20025;-66
2024/02/21 01:13:40;;;;;;;8.38;2.83;;;10.50;99.90;;;;;;10079647;28;20028;-66
2024/02/21 01:18:31;;;;;;;7.78;2.88;;;10.50;99.90;;;;;;10097708;28;20044;-66
2024/02/21 01:23:21;;;;;;;5.22;2.33;;;10.50;99.90;;;;;;10096515;28;20114;-66
2024/02/21 01:28:12;;;;;;;6.03;2.40;;;10.50;99.90;;;;;;10096810;28;20107;-65
2024/02/21 01:33:03;;;;;;;4.18;1.65;;;10.50;99.90;;;;;;10098302;28;20462;-65
2024/02/21 01:37:54;;;;;;;3.88;2.17;;;10.40;99.90;;;;;;10096690;28;20033;-65
2024/02/21 01:42:44;;;;;;;4.32;2.10;;;10.40;99.90;;;;;;10079250;28;20052;-67
2024/02/21 01:47:37;;;;;;;4.55;2.45;;;10.40;99.90;;;;;;10101778;28;20425;-66
2024/02/21 01:52:29;;;;;;;4.00;2.47;;;10.40;99.90;;;;;;10094574;28;20031;-66
2024/02/21 01:57:19;;;;;;;3.47;1.92;;;10.30;99.90;;;;;;10096267;28;20135;-65
2024/02/21 02:02:10;;;;;;;4.47;2.03;;;10.30;99.90;;;;;;10103556;28;20025;-66
2024/02/21 02:07:03;;;;;;;4.07;2.60;;;10.20;99.90;;;;;;10078060;28;20039;-67
2024/02/21 02:11:53;;;;;;;3.75;2.13;;;10.20;99.90;;;;;;10085434;28;20020;-66
2024/02/21 02:16:49;;;;;;;4.13;2.55;;;10.30;99.90;;;;;;10096255;28;20033;-66
2024/02/21 02:21:41;;;;;;;;;;;10.20;99.90;;;;;;10096417;28;20029;-65
2024/02/21 02:26:31;;;;;;;4.20;2.22;;;10.20;99.90;;;;;;10096472;28;20012;-66
2024/02/21 02:31:22;;;;;;;3.65;2.65;;;10.20;99.90;;;;;;10096438;28;20113;-67
2024/02/21 02:36:13;;;;;;;3.10;2.35;;;10.20;99.90;;;;;;10095735;28;21285;-66
2024/02/21 02:41:03;;;;;;;5.78;2.85;;;10.20;99.90;;;;;;10096201;28;20541;-67
2024/02/21 02:45:55;;;;;;;6.90;2.95;;;10.20;99.90;;;;;;10090428;28;20036;-66
2024/02/21 02:50:46;;;;;;;4.63;2.22;;;10.20;99.90;;;;;;10094350;28;20033;-66
2024/02/21 02:55:37;;;;;;;5.05;3.10;;;10.20;99.90;;;;;;10095005;28;20554;-66
2024/02/21 03:00:27;;;;;;;4.32;2.95;;;10.10;99.90;;;;;;10095647;28;20131;-65
2024/02/21 03:05:20;;;;;;;4.45;2.65;;;10.10;99.90;;;;;;10101488;28;20376;-66
2024/02/21 03:10:11;;;;;;;2.90;2.20;;;10.00;99.90;;;;;;10106242;28;20033;-67
2024/02/21 03:15:02;;;;;;;3.58;2.40;;;10.00;99.90;;;;;;10102091;28;20368;-66
2024/02/21 03:19:53;;;;;;;5.30;2.55;;;10.00;99.90;;;;;;10102919;28;20127;-66
2024/02/21 03:24:44;;;;;;;6.88;2.42;;;10.00;99.90;;;;;;10101341;28;20017;-66
2024/02/21 03:29:35;;;;;;;6.32;3.22;;;9.90;99.90;;;;;;10101875;28;20079;-66
2024/02/21 03:34:26;;;;;;;3.13;2.30;;;9.90;99.90;;;;;;10099558;28;20609;-67
2024/02/21 03:39:16;;;;;;;4.60;2.78;;;9.90;99.90;;;;;;10102373;28;20047;-66
2024/02/21 03:44:07;;;;;;;4.18;2.55;;;9.90;99.90;;;;;;10101922;28;20478;-66
2024/02/21 03:48:57;;;;;;;9.73;2.95;;;9.90;99.90;;;;;;10101909;28;20033;-66
2024/02/21 03:53:48;;;;;;;7.80;2.90;;;9.80;99.90;;;;;;10100551;28;20123;-66
2024/02/21 03:58:40;;;;;;;5.60;2.30;;;9.80;99.90;;;;;;10101620;28;20459;-67
2024/02/21 04:03:31;;;;;;;6.50;2.97;;;9.80;99.90;;;;;;10101353;28;20021;-66
2024/02/21 04:08:22;;;;;;;8.20;2.55;;;9.70;99.90;;;;;;10103764;28;20025;-66
2024/02/21 04:13:13;;;;;;;4.93;2.40;;;9.70;99.90;;;;;;10104990;28;20041;-67
2024/02/21 04:18:03;;;;;;;6.03;2.78;;;9.70;99.90;;;;;;10097957;28;20037;-67
2024/02/21 04:22:54;;;;;;;5.18;2.95;;;9.70;99.90;;;;;;10102838;28;20484;-68
2024/02/21 04:27:44;;;;;;;4.15;3.45;;;9.70;99.90;;;;;;10102036;28;20123;-67
2024/02/21 04:32:35;;;;;;;5.53;2.85;;;9.60;99.90;;;;;;10104425;28;20040;-67
2024/02/21 04:37:26;;;;;;;5.80;3.25;;;9.60;99.90;;;;;;10104541;28;20123;-66
2024/02/21 04:42:17;;;;;;;8.60;3.00;;;9.50;99.90;;;;;;10107012;28;20088;-67
2024/02/21 04:47:08;;;;;;;6.32;3.08;;;9.40;99.90;;;;;;10107834;28;20036;-67
2024/02/21 04:51:59;;;;;;;3.17;2.17;;;9.30;99.90;;;;;;10106397;28;20040;-67
2024/02/21 04:56:50;;;;;;;7.15;3.45;;;9.30;99.90;;;;;;10105974;28;20106;-67
2024/02/21 05:01:40;;;;;;;5.70;2.95;;;9.30;99.90;;;;;;10105456;28;20467;-67
2024/02/21 05:06:31;;;;;;;6.15;3.70;;;9.20;99.90;;;;;;10105102;28;20021;-66
2024/02/21 05:11:22;;;;;;;6.13;2.85;;;9.30;99.90;;;;;;10102462;28;20590;-66
2024/02/21 05:16:12;;;;;;;10.25;2.95;;;9.30;99.90;;;;;;10106991;28;20036;-66
2024/02/21 05:21:04;;;;;;;5.57;2.47;;;9.30;99.90;;;;;;10105488;28;20113;-67
2024/02/21 05:25:55;;;;;;;6.35;2.67;;;9.30;99.90;;;;;;10114666;28;20059;-66
2024/02/21 05:30:45;;;;;;;6.50;4.10;;;9.20;99.90;;;;;;10105852;28;20112;-66
2024/02/21 05:35:36;;;;;;;4.05;2.72;;;9.20;99.90;;;;;;10100999;28;20033;-66
2024/02/21 05:40:27;;;;;;;4.03;2.53;;;9.20;99.90;;;;;;10087147;28;20482;-67
2024/02/21 05:45:18;;;;;;;5.00;3.17;;;9.20;99.90;;;;;;10101640;28;20031;-66
2024/02/21 05:50:09;;;;;;;7.47;2.92;;;9.10;99.90;;;;;;10103702;28;20029;-66
2024/02/21 05:55:00;;;;;;;5.53;3.58;;;9.10;99.90;;;;;;10102094;28;20021;-68
2024/02/21 05:59:51;;;;;;;6.40;2.50;;;9.10;99.90;;;;;;10097758;28;20079;-66
2024/02/21 06:04:42;;;;;;;5.88;2.70;;;9.10;99.90;;;;;;10104365;28;20021;-66
2024/02/21 06:09:33;;;;;;;3.38;2.35;;;9.10;99.90;;;;;;10087307;28;20415;-67
2024/02/21 06:14:23;;;;;;;3.95;2.50;;;9.00;99.90;;;;;;10087128;28;20870;-68
2024/02/21 06:19:14;;;;;;;5.57;2.78;;;9.00;99.90;;;;;;10110575;28;20347;-67
2024/02/21 06:24:05;;;;;;;6.18;3.40;;;9.00;99.90;;;;;;10085791;28;20032;-67
2024/02/21 06:28:59;;;;;;;3.78;2.35;;;9.00;99.90;;;;;;10105747;28;20383;-68
2024/02/21 06:33:50;;;;;;;5.82;2.75;;;9.00;99.90;;;;;;10105821;28;20108;-67
2024/02/21 06:38:40;;;;;;;6.78;2.88;;;8.90;99.90;;;;;;10117085;28;20049;-67
2024/02/21 06:43:31;;;;;;;7.03;2.88;;;8.90;99.90;;;;;;10120134;28;20113;-68
2024/02/21 06:48:22;;;;;;;5.43;2.90;;;8.90;99.90;;;;;;10115339;28;20025;-68
2024/02/21 06:53:12;;;;;;;5.82;3.33;;;8.90;99.90;;;;;;10105567;28;20316;-67
2024/02/21 06:58:03;;;;;;;7.32;2.80;;;8.80;99.90;;;;;;10131074;28;20041;-67
2024/02/21 07:02:54;;;;;;;6.57;3.25;;;8.90;99.90;;;;;;10119841;28;20027;-68
2024/02/21 07:07:44;;;;;;;5.40;3.10;;;8.80;99.90;;;;;;10116604;28;20097;-66
2024/02/21 07:12:37;;;;;;;6.35;2.75;;;8.90;99.90;;;;;;10126123;28;20029;-67
2024/02/21 07:17:27;;;;;;;6.07;3.15;;;8.90;99.90;;;;;;10122531;28;20040;-67
2024/02/21 07:22:18;;;;;;;6.18;3.33;;;8.90;99.90;;;;;;10122820;28;20052;-67
2024/02/21 07:27:08;;;;;;;5.57;3.05;;;8.80;99.90;;;;;;10137866;22;20052;-73
2024/02/21 07:31:59;;;;;;;6.40;3.42;;;8.90;99.90;;;;;;10107620;28;20044;-74
2024/02/21 07:36:50;;;;;;;7.65;3.08;;;8.90;99.90;;;;;;10121338;28;20036;-73
2024/02/21 07:41:42;;;;;;;6.97;3.38;;;8.90;99.90;;;;;;10121632;28;20390;-73
2024/02/21 07:46:33;;;;;;;6.95;3.40;;;8.90;99.90;;;;;;10120149;28;20438;-73
2024/02/21 07:51:28;;;;;;;9.00;3.13;;;9.00;99.90;;;;;;10115635;28;20051;-73
2024/02/21 07:56:19;;;;;;;6.05;3.15;;;8.90;99.90;;;;;;10128709;28;20036;-74
2024/02/21 08:01:10;;;;;;;5.97;2.67;;;9.00;99.90;;;;;;10103817;28;20060;-73
2024/02/21 08:06:01;;;;;;;5.35;2.88;;;9.10;99.90;;;;;;10120882;28;20096;-73
2024/02/21 08:10:53;;;;;;;5.80;2.85;;;9.20;99.90;;;;;;10119900;28;20021;-73
2024/02/21 08:15:43;;;;;;;6.53;2.55;;;9.20;99.90;;;;;;10122999;28;20057;-73
2024/02/21 08:20:34;;;;;;;7.13;2.22;;;9.20;99.90;;;;;;10129262;28;20244;-73
2024/02/21 08:25:25;;;;;;;7.78;2.90;;;9.30;99.90;;;;;;10125588;28;20048;-73
2024/02/21 08:30:16;;;;;;;4.25;2.20;;;9.50;99.90;;;;;;10130656;28;20047;-73
2024/02/21 08:35:07;;;;;;;6.05;2.70;;;9.40;99.90;;;;;;10138931;28;20344;-72
2024/02/21 08:39:58;;;;;;;5.15;2.17;;;9.50;99.90;;;;;;10146514;28;20040;-74
2024/02/21 08:44:48;;;;;;;6.85;2.75;;;9.50;99.90;;;;;;10103761;28;20025;-74
2024/02/21 08:49:39;;;;;;;4.05;2.10;;;9.50;99.90;;;;;;10116611;28;20040;-74
2024/02/21 08:54:30;;;;;;;4.90;2.03;;;9.50;99.90;;;;;;10129810;28;20096;-74
2024/02/21 08:59:24;;;;;;;6.65;2.88;;;9.60;99.90;;;;;;10122015;28;20033;-74
2024/02/21 09:04:14;;;;;;;5.15;2.15;;;9.70;99.90;;;;;;10100229;28;20205;-74
2024/02/21 09:09:08;;;;;;;6.47;2.88;;;9.70;99.90;;;;;;10108782;28;20036;-74
2024/02/21 09:13:58;;;;;;;4.80;2.20;;;9.60;99.90;;;;;;10117852;28;20021;-74
2024/02/21 09:18:49;;;;;;;3.15;1.80;;;9.70;99.90;;;;;;10138814;28;20062;-73
2024/02/21 09:23:40;;;;;;;5.90;2.10;;;9.80;99.90;;;;;;10140122;28;20080;-72
2024/02/21 09:28:30;;;;;;;4.60;2.00;;;9.90;99.90;;;;;;10139850;28;20204;-73
2024/02/21 09:33:21;;;;;;;3.83;2.50;;;9.90;99.90;;;;;;10149203;28;20033;-73
2024/02/21 09:38:12;;;;;;;5.65;2.13;;;10.00;99.90;;;;;;10143595;28;20069;-73
2024/02/21 09:43:07;;;;;;;4.28;1.95;;;10.10;99.90;;;;;;10128796;28;20041;-73
2024/02/21 09:48:25;;;;;;;7.10;2.30;;;10.10;99.90;;;;;;10119887;28;20036;-73
2024/02/21 09:53:16;;;;;;;4.75;1.70;;;10.10;99.90;;;;;;10115616;28;20029;-74
2024/02/21 09:58:11;;;;;;;2.95;1.60;;;10.10;99.90;;;;;;10126238;28;20548;-73
2024/02/21 10:03:07;;;;;;;4.40;1.73;;;10.10;99.90;;;;;;10122193;28;20021;-73
2024/02/21 10:07:58;;;;;;;5.15;1.63;;;10.20;99.90;;;;;;10119359;28;20051;-73
2024/02/21 10:12:54;;;;;;;4.20;2.50;;;10.20;99.90;;;;;;10121278;28;20032;-74
2024/02/21 10:17:45;;;;;;;2.65;1.60;;;10.40;99.90;;;;;;10130269;28;20056;-74
2024/02/21 10:22:39;;;;;;;3.33;1.60;;;10.40;99.90;;;;;;10136068;28;20537;-73
2024/02/21 10:27:30;;;;;;;4.60;2.15;;;10.50;99.90;;;;;;10127619;28;20051;-74
2024/02/21 10:32:22;;;;;;;3.72;1.90;;;10.50;99.90;;;;;;10128387;28;20227;-75
2024/02/21 10:37:13;;;;;;;3.97;1.75;;;10.60;99.90;;;;;;10106463;28;20171;-74
2024/02/21 10:42:04;;;;;;;6.40;1.98;;;10.60;99.90;;;;;;10130574;28;20025;-74
2024/02/21 10:46:56;;;;;;;6.10;1.95;;;10.60;99.90;;;;;;10120681;28;20066;-73
2024/02/21 10:51:48;;;;;;;4.05;2.08;;;10.70;99.90;;;;;;10134633;28;20279;-74
2024/02/21 10:56:40;;;;;;;3.85;1.80;;;10.80;99.90;;;;;;10134197;28;20052;-73
2024/02/21 11:01:32;;;;;;;3.38;1.85;;;10.90;99.90;;;;;;10144050;28;20340;-74
2024/02/21 11:06:24;;;;;;;3.15;1.70;;;10.90;99.90;;;;;;10135371;28;20109;-74
2024/02/21 11:11:20;;;;;;;2.60;1.85;;;11.00;99.90;;;;;;10125745;28;20350;-74
2024/02/21 11:16:12;;;;;;;4.90;2.35;;;11.00;99.90;;;;;;10131104;28;20040;-74
2024/02/21 11:21:06;;;;;;;3.90;2.97;;;11.00;99.90;;;;;;10109550;28;20324;-74
2024/02/21 11:26:07;;;;;;;2.35;1.48;;;11.00;99.90;;;;;;10111608;28;20060;-74
2024/02/21 11:31:09;;;;;;;3.45;1.40;;;11.00;99.90;;;;;;10130386;28;20024;-74
2024/02/21 11:35:59;;;;;;;10.05;2.60;;;11.10;99.90;;;;;;10116515;28;20040;-74
2024/02/21 11:40:50;;;;;;;2.85;1.42;;;11.10;99.90;;;;;;10116928;28;20036;-74
2024/02/21 11:45:41;;;;;;;4.60;1.73;;;11.10;99.90;;;;;;10110463;28;20029;-74
2024/02/21 11:50:39;;;;;;;4.40;1.65;;;11.10;99.90;;;;;;10089829;28;20043;-74
2024/02/21 11:55:30;;;;;;;4.97;2.40;;;11.20;99.90;;;;;;10123405;28;20124;-74
2024/02/21 12:00:21;;;;;;;2.38;1.60;;;11.20;99.90;;;;;;10111110;28;20083;-73
2024/02/21 12:05:14;;;;;;;3.58;1.50;;;11.30;99.90;;;;;;10111113;28;20021;-73
2024/02/21 12:10:12;;;;;;;2.53;1.70;;;11.30;99.90;;;;;;10118685;28;20039;-73
2024/02/21 12:15:05;;;;;;;4.03;2.13;;;11.30;99.90;;;;;;10114787;28;20403;-73
2024/02/21 12:19:57;;;;;;;3.97;1.88;;;11.30;99.90;;;;;;10086810;28;20259;-73
2024/02/21 12:24:47;;;;;;;2.70;1.52;;;11.30;99.90;;;;;;10084797;28;20025;-75
2024/02/21 12:29:38;;;;;;;4.13;1.90;;;11.30;99.90;;;;;;10103300;28;20482;-75
2024/02/21 12:34:31;;;;;;;7.72;1.73;;;11.40;99.90;;;;;;10102895;28;20028;-75
2024/02/21 12:39:22;;;;;;;4.82;2.05;;;11.40;99.90;;;;;;10104917;28;20037;-74
2024/02/21 12:44:13;;;;;;;4.38;2.25;;;11.40;99.90;;;;;;10105935;28;20021;-74
2024/02/21 12:49:04;;;;;;;3.67;2.08;;;11.50;99.90;;;;;;10101137;28;20025;-74
2024/02/21 12:53:55;;;;;;;2.63;1.58;;;11.60;99.90;;;;;;10098950;28;20009;-73
2024/02/21 12:58:46;;;;;;;2.55;1.20;;;11.60;99.90;;;;;;10101229;28;20079;-74
2024/02/21 13:03:37;;;;;;;5.88;1.85;;;11.70;99.90;;;;;;10121239;28;20025;-75
2024/02/21 13:08:28;;;;;;;4.53;1.73;;;11.70;99.90;;;;;;10123373;28;20055;-75
2024/02/21 13:13:19;;;;;;;7.93;1.80;;;11.70;99.90;;;;;;10101900;28;20494;-75
2024/02/21 13:18:10;;;;;;;3.63;2.38;;;11.80;99.90;;;;;;10114463;28;20037;-75
2024/02/21 13:23:01;;;;;;;4.53;1.20;;;11.80;99.90;;;;;;10082897;28;20048;-75
2024/02/21 13:27:51;;;;;;;5.45;1.50;;;11.90;99.90;;;;;;10080811;28;20106;-76
2024/02/21 13:32:43;;;;;;;3.17;1.50;;;11.90;99.90;;;;;;10097353;28;20025;-76
2024/02/21 13:37:34;;;;;;;3.50;1.63;;;12.00;99.90;;;;;;10103655;28;20040;-75
2024/02/21 13:42:27;;;;;;;2.70;1.33;;;12.00;99.90;;;;;;10098169;28;20017;-74
2024/02/21 13:47:18;;;;;;;3.10;1.50;;;12.00;99.90;;;;;;10099814;28;20032;-75
2024/02/21 13:52:11;;;;;;;2.47;1.67;;;12.00;99.90;;;;;;10086016;28;20040;-75
2024/02/21 13:57:02;;;;;;;3.17;1.35;;;12.00;99.90;;;;;;10101892;28;20033;-74
2024/02/21 14:01:53;;;;;;;3.55;1.55;;;12.00;99.90;;;;;;10097350;28;20528;-73
2024/02/21 14:06:44;;;;;;;4.63;1.27;;;12.00;99.90;;;;;;10094486;28;20079;-75
2024/02/21 14:11:34;;;;;;;3.20;1.27;;;12.10;99.90;;;;;;10096326;28;20033;-74
2024/02/21 14:16:25;;;;;;;3.08;1.38;;;12.10;99.90;;;;;;10096605;28;20025;-75
2024/02/21 14:21:16;;;;;;;3.72;1.65;;;12.20;99.90;;;;;;10096407;28;20110;-74
2024/02/21 14:26:07;;;;;;;3.97;1.50;;;12.20;99.90;;;;;;10105064;28;20040;-75
2024/02/21 14:30:57;;;;;;;2.92;1.10;;;12.20;99.90;;;;;;10095758;28;20029;-75
2024/02/21 14:35:48;;;;;;;2.78;1.45;;;12.20;99.90;;;;;;10096871;28;20523;-75
2024/02/21 14:40:39;;;;;;;3.30;1.83;;;12.20;99.90;;;;;;10099770;28;20033;-74
2024/02/21 14:45:29;;;;;;;4.47;1.25;;;12.20;99.90;;;;;;10095522;28;20033;-75
2024/02/21 14:50:20;;;;;;;2.47;1.60;;;12.20;99.90;;;;;;10095435;28;20029;-75
2024/02/21 14:55:14;;;;;;;2.58;1.20;;;12.20;99.90;;;;;;10077117;28;20025;-75
2024/02/21 15:00:08;;;;;;;4.07;1.35;;;12.20;99.90;;;;;;10113036;28;20458;-75
2024/02/21 15:04:59;;;;;;;1.65;0.95;;;12.20;99.90;;;;;;10102849;28;20779;-75
2024/02/21 15:09:51;;;;;;;3.10;1.23;;;12.20;99.90;;;;;;10090843;28;20033;-75
2024/02/21 15:14:43;;;;;;;1.65;0.90;;;12.20;99.90;;;;;;10083061;28;20481;-74
2024/02/21 15:19:34;;;;;;;1.83;1.13;;;12.20;99.90;;;;;;10079891;28;20136;-74
2024/02/21 15:24:25;;;;;;;3.83;1.73;;;12.20;99.90;;;;;;10085982;28;20044;-75
2024/02/21 15:29:16;;;;;;;2.55;1.50;;;12.20;99.90;;;;;;10100345;28;20091;-75
2024/02/21 15:34:07;;;;;;;2.25;1.92;;;12.20;99.90;;;;;;10100942;28;20074;-75
2024/02/21 15:38:59;;;;;;;2.95;1.25;;;12.20;99.90;;;;;;10113442;28;20146;-75
2024/02/21 15:43:50;;;;;;;1.95;1.00;;;12.30;99.90;;;;;;10100584;28;20060;-74
2024/02/21 15:48:41;;;;;;;4.82;1.45;;;12.30;99.90;;;;;;10103557;28;20071;-75
2024/02/21 15:53:35;;;;;;;2.55;1.35;;;12.30;99.90;;;;;;10112964;28;20355;-75
2024/02/21 15:58:29;;;;;;;2.50;1.10;;;12.30;99.90;;;;;;10101048;28;20379;-75
2024/02/21 16:03:21;;;;;;;3.30;1.10;;;12.30;99.90;;;;;;10087426;28;20399;-76
2024/02/21 16:08:12;;;;;;;3.92;1.08;;;12.20;99.90;;;;;;10100572;28;20522;-73
2024/02/21 16:13:03;;;;;;;1.58;1.30;;;12.30;99.90;;;;;;10098717;28;20101;-73
2024/02/21 16:17:54;;;;;;;2.40;1.00;;;12.30;99.90;;;;;;10111262;28;20402;-74
2024/02/21 16:22:45;;;;;;;3.55;1.08;;;12.30;99.90;;;;;;10131625;28;20021;-74
2024/02/21 16:27:36;;;;;;;4.85;1.50;;;12.30;99.90;;;;;;10109521;28;20127;-74
2024/02/21 16:32:27;;;;;;;2.28;1.60;;;12.30;99.90;;;;;;10100010;28;20079;-73
2024/02/21 16:37:21;;;;;;;2.00;1.52;;;12.30;99.90;;;;;;10080498;28;20095;-74
2024/02/21 16:42:12;;;;;;;5.25;2.15;;;12.30;99.90;;;;;;10097163;28;20399;-73
2024/02/21 16:47:04;;;;;;;2.42;1.15;;;12.30;99.90;;;;;;10099823;28;20031;-75
2024/02/21 16:51:54;;;;;;;4.43;1.55;;;12.20;99.90;;;;;;10099464;28;20065;-74
2024/02/21 16:56:45;;;;;;;5.25;1.45;;;12.20;99.90;;;;;;10098485;28;20068;-73
2024/02/21 17:01:40;;;;;;;1.50;1.08;;;12.30;99.90;;;;;;10118221;28;20569;-73
2024/02/21 17:06:31;;;;;;;3.93;1.37;;;12.30;99.90;;;;;;10124630;28;20502;-74
2024/02/21 17:11:22;;;;;;;2.40;1.35;;;12.30;99.90;;;;;;10100778;28;20036;-74
2024/02/21 17:16:12;;;;;;;5.13;1.95;;;12.30;99.90;;;;;;10107181;28;20086;-74
2024/02/21 17:21:03;;;;;;;5.80;1.60;;;12.20;99.90;;;;;;10110186;28;20025;-75
2024/02/21 17:25:54;;;;;;;1.67;1.38;;;12.20;99.90;;;;;;10096422;28;20049;-74
2024/02/21 17:30:45;;;;;;;2.35;1.35;;;12.30;99.90;;;;;;10124371;28;20039;-74
2024/02/21 17:35:36;;;;;;;2.65;1.30;;;12.30;99.90;;;;;;10112055;28;20521;-74
2024/02/21 17:40:26;;;;;;;3.40;1.05;;;12.30;99.90;;;;;;10096799;28;20032;-74
2024/02/21 17:45:18;;;;;;;3.00;1.23;;;12.30;99.90;;;;;;10096158;28;20021;-73
2024/02/21 17:50:09;;;;;;;3.40;1.48;;;12.30;99.90;;;;;;10096479;28;20021;-74
2024/02/21 17:55:00;;;;;;;3.15;1.55;;;12.20;99.90;;;;;;10098240;28;20029;-74
2024/02/21 17:59:51;;;;;;;3.53;1.33;;;12.20;99.90;;;;;;10095365;28;20487;-75
2024/02/21 18:04:41;;;;;;;2.80;1.20;;;12.20;99.90;;;;;;10095340;28;20036;-75
2024/02/21 18:09:34;;;;;;;2.03;1.15;;;12.20;99.90;;;;;;10094497;28;20491;-75
2024/02/21 18:14:25;;;;;;;2.75;1.73;;;12.20;99.90;;;;;;10095109;28;20098;-75
2024/02/21 18:19:19;;;;;;;3.88;1.55;;;12.20;99.90;;;;;;10095222;28;20037;-75
2024/02/21 18:24:10;;;;;;;2.85;1.90;;;12.20;99.90;;;;;;10102922;28;20118;-75
2024/02/21 18:29:00;;;;;;;3.50;1.42;;;12.20;99.90;;;;;;10093838;28;20052;-76
2024/02/21 18:33:51;;;;;;;3.72;1.25;;;12.20;99.90;;;;;;10096374;28;20025;-76
2024/02/21 18:38:42;;;;;;;2.38;1.90;;;12.20;99.90;;;;;;10087771;28;20025;-77
2024/02/21 18:43:33;;;;;;;3.70;1.20;;;12.20;99.90;;;;;;10107734;28;20029;-75
2024/02/21 18:48:24;;;;;;;6.97;1.75;;;12.30;99.90;;;;;;10082307;28;20498;-75
2024/02/21 18:53:15;;;;;;;1.95;1.30;;;12.30;99.90;;;;;;10079891;28;20457;-75
2024/02/21 18:58:05;;;;;;;2.55;1.50;;;12.30;99.90;;;;;;10100178;28;20044;-74
2024/02/21 19:02:57;;;;;;;1.83;1.60;;;12.30;99.90;;;;;;10100042;28;20014;-75
2024/02/21 19:07:48;;;;;;;3.13;1.77;;;12.30;99.90;;;;;;10081881;28;20025;-75
2024/02/21 19:12:40;;;;;;;4.20;1.90;;;12.30;99.90;;;;;;10099645;28;20057;-76
2024/02/21 19:17:31;;;;;;;5.20;2.33;;;12.30;99.90;;;;;;10099727;28;20073;-76
2024/02/21 19:22:24;;;;;;;2.92;1.73;;;12.30;99.90;;;;;;10100961;28;20075;-75
2024/02/21 19:27:15;;;;;;;5.50;2.28;;;12.30;99.90;;;;;;10040157;28;1159417;-75
2024/02/21 19:32:06;;;;;;;4.90;2.22;;;12.30;99.90;;;;;;10102353;28;20037;-76
2024/02/21 19:36:57;;;;;;;2.67;1.65;;;12.20;99.90;;;;;;10106922;28;20013;-75
2024/02/21 19:41:48;;;;;;;3.95;2.05;;;12.20;99.90;;;;;;10087422;28;20033;-78
2024/02/21 19:46:39;;;;;;;3.42;2.03;;;12.30;99.90;;;;;;10102443;28;20009;-76
2024/02/21 19:51:30;;;;;;;4.93;2.22;;;12.30;99.90;;;;;;10100875;28;20036;-75
2024/02/21 19:56:21;;;;;;;3.28;2.08;;;12.30;99.90;;;;;;10082316;28;20036;-76
2024/02/21 20:01:12;;;;;;;4.25;1.98;;;12.30;99.90;;;;;;10100063;28;20029;-75
2024/02/21 20:06:03;;;;;;;2.83;2.08;;;12.30;99.90;;;;;;10104754;28;20031;-75
2024/02/21 20:10:54;;;;;;;4.22;1.90;;;12.30;99.90;;;;;;10108279;28;20032;-75
2024/02/21 20:15:45;;;;;;;4.75;1.80;;;12.20;99.90;;;;;;10099494;28;20025;-76
2024/02/21 20:20:36;;;;;;;4.03;1.88;;;12.30;99.90;;;;;;10099908;28;20778;-77
2024/02/21 20:25:27;;;;;;;4.90;2.70;;;12.20;99.90;;;;;;10086743;28;20521;-76
2024/02/21 20:30:18;;;;;;;3.70;1.98;;;12.20;99.90;;;;;;10089864;28;20033;-76
2024/02/21 20:35:10;;;;;;;5.18;2.13;;;12.20;99.90;;;;;;10118374;28;20029;-77
2024/02/21 20:40:06;;;;;;;3.85;2.45;;;12.30;99.90;;;;;;10113914;28;20033;-76
2024/02/21 20:44:59;;;;;;;;;;;12.40;99.90;;;;;;10098829;28;20364;-77
2024/02/21 20:49:53;;;;;;;4.10;1.92;;;12.30;99.90;;;;;;10098871;28;19904;-77
2024/02/21 20:54:46;;;;;;;4.32;1.70;;;12.40;99.90;;;;;;10079916;28;20084;-77
2024/02/21 20:59:37;;;;;;;4.38;2.25;;;12.50;99.90;;;;;;10104292;28;20087;-76
2024/02/21 21:04:28;;;;;;;2.60;1.95;;;12.50;99.90;;;;;;10098065;28;20049;-76
2024/02/21 21:09:20;;;;;;;2.65;1.63;;;12.40;99.90;;;;;;10079807;28;20028;-77
2024/02/21 21:14:10;;;;;;;1.55;1.02;;;12.40;99.90;;;;;;10092269;28;20125;-74
2024/02/21 21:19:01;;;;;;;3.83;1.85;;;12.50;99.90;;;;;;10099497;28;20132;-77
2024/02/21 21:23:52;;;;;;;2.90;1.63;;;12.60;99.90;;;;;;10117311;28;20028;-78
2024/02/21 21:28:42;;;;;;;2.92;1.67;;;12.60;99.90;;;;;;10114709;28;20325;-77
2024/02/21 21:33:33;;;;;;;3.05;1.63;;;12.60;99.90;;;;;;10127343;28;20490;-76
2024/02/21 21:38:24;;;;;;;3.03;1.80;;;12.60;99.90;;;;;;10131606;28;20039;-77
2024/02/21 21:43:15;;;;;;;2.35;1.63;;;12.50;99.90;;;;;;10096374;28;20037;-76
2024/02/21 21:48:06;;;;;;;4.05;2.22;;;12.60;99.90;;;;;;10102401;28;20016;-77
2024/02/21 21:52:59;;;;;;;2.67;1.45;;;12.60;99.90;;;;;;10108571;28;20021;-77
2024/02/21 21:57:51;;;;;;;4.00;1.67;;;12.70;99.90;;;;;;10111717;28;20125;-77
2024/02/21 22:02:46;;;;;;;3.80;1.65;;;12.70;99.90;;;;;;10124910;28;20025;-76
2024/02/21 22:07:37;;;;;;;6.63;2.57;;;12.70;99.90;;;;;;10095486;28;20463;-76
2024/02/21 22:12:28;;;;;;;1.65;1.20;;;12.70;99.90;;;;;;10096172;28;20063;-77
2024/02/21 22:17:19;;;;;;;3.55;1.60;;;12.60;99.90;;;;;;10098153;28;20029;-75
2024/02/21 22:22:13;;;;;;;3.85;1.30;;;12.60;99.90;;;;;;10105509;28;20029;-76
2024/02/21 22:27:05;;;;;;;1.60;1.20;;;12.70;99.90;;;;;;10090222;28;20057;-77
2024/02/21 22:31:59;;;;;;;2.35;1.10;;;12.70;99.90;;;;;;10097105;28;20025;-77
2024/02/21 22:36:52;;;;;;;3.75;1.38;;;12.70;99.90;;;;;;10095326;28;20135;-77
2024/02/21 22:41:44;;;;;;;3.40;1.75;;;12.70;99.90;;;;;;10095848;28;20051;-77
2024/02/21 22:46:39;;;;;;;2.30;1.52;;;12.70;99.90;;;;;;10078157;28;20025;-76
2024/02/21 22:51:36;;;;;;;1.80;0.90;;;12.70;99.90;;;;;;10095751;28;20036;-75
2024/02/21 22:56:28;;;;;;;1.65;0.98;;;12.70;99.90;;;;;;10077988;28;20026;-75
2024/02/21 23:01:19;;;;;;;4.82;1.27;;;12.70;99.90;;;;;;10084288;28;20114;-75
2024/02/21 23:06:12;;;;;;;1.90;1.13;;;12.70;99.90;;;;;;10128917;28;20074;-78
2024/02/21 23:11:27;;;;;;;1.65;0.73;;;12.60;99.90;;;;;;10104260;28;20027;-77
2024/02/21 23:16:21;;;;;;;1.17;0.95;;;12.70;99.90;;;;;;10088275;28;20437;-77
2024/02/21 23:21:11;;;;;;;0.47;0.47;;;12.70;99.90;;;;;;10124201;28;20033;-77
2024/02/21 23:26:02;;;;;;;1.13;0.60;;;12.60;99.90;;;;;;10136288;28;20045;-76
2024/02/21 23:30:56;;;;;;;2.22;0.90;;;12.60;99.90;;;;;;10127719;28;20158;-77
2024/02/21 23:35:54;;;;;;;0.73;0.50;;;12.60;99.90;;;;;;10109051;28;20029;-76
2024/02/21 23:40:47;;;;;;;2.83;0.50;;;12.60;99.90;;;;;;10093548;28;20044;-77
2024/02/21 23:45:38;;;;;;;0.60;0.43;;;12.50;99.90;;;;;;10101688;28;20025;-77
2024/02/21 23:50:29;;;;;;;0.35;0.32;;;12.50;99.90;;;;;;10109481;28;20035;-76
2024/02/21 23:55:20;;;;;;;0.60;0.50;;;12.50;99.90;;;;;;10105668;28;20053;-76
